Riverdance — C6CG3 — position and weather

sailwx.info

Track history (hours):
 
Tides and Currents Weather Stations Pressure Air Temp Water Temp Dewpoint Dewpoint Depression Visibility Wind Speed Wind Dir Waves Ship Positions

Riverdance

Operator: Crescent Marine Services Ltd

Last reported at 2020-Sep-19 07:30 UTC. Time now 2020-Sep-19 08:46 UTC.
Position N 52°12' E 001°42'.

Length 72 m; draft 5.7 m.

Type: Other ship. MMSI: 311000463.

Date/timePositionNaut miles runAvg speedWind from/ knotsBaromVisibWave heightAir tempDewpointWater temp
2020-Sep-19 07:30N 52°12' E 001°42'1 1.0
2020-Sep-19 07:00N 52°12' E 001°42'2 1.2
2020-Sep-19 05:00N 52°14' E 001°42'1 1.1
2020-Sep-19 04:30N 52°14' E 001°43'1 0.7
2020-Sep-19 02:30N 52°16' E 001°43'1 1.0
2020-Sep-19 01:30N 52°17' E 001°43'4 2.2
2020-Sep-18 23:30N 52°12' E 001°42'2 1.7
2020-Sep-18 22:30N 52°11' E 001°41'5 1.9
2020-Sep-18 20:00N 52°16' E 001°43'2 2.1
2020-Sep-18 19:00N 52°14' E 001°42'2 2.5
2020-Sep-18 18:00N 52°11' E 001°42'3 0.9
2020-Sep-18 15:00N 52°14' E 001°44'1 0.9
2020-Sep-18 13:30N 52°15' E 001°43'5 1.6
2020-Sep-18 10:30N 52°19' E 001°46'9 2.9
2020-Sep-18 07:31N 52°11' E 001°42'3 5.5
2020-Sep-18 07:00N 52°14' E 001°44'0 0.2
2020-Sep-18 05:00N 52°14' E 001°44'1 0.7
2020-Sep-18 03:00N 52°13' E 001°44'2 1.0
2020-Sep-18 01:30N 52°14' E 001°44'1 1.3
2020-Sep-18 01:00N 52°14' E 001°45'0 0.1
2020-Sep-17 19:30N 52°15' E 001°44'1 0.5
2020-Sep-17 17:00N 52°14' E 001°43'1 0.7
2020-Sep-17 15:30N 52°13' E 001°44'1 1.3
2020-Sep-17 14:30N 52°12' E 001°45'2 0.8
2020-Sep-17 12:00N 52°13' E 001°42'2 0.5
2020-Sep-17 08:00N 52°11' E 001°42'1 1.1
2020-Sep-17 07:30N 52°11' E 001°42'1 1.2
2020-Sep-17 07:00N 52°10' E 001°42'2 3.5
2020-Sep-17 06:30N 52°11' E 001°44'1 0.4
2020-Sep-17 03:30N 52°10' E 001°44'1 1.8
2020-Sep-17 03:00N 52°11' E 001°44'3 1.9
2020-Sep-17 01:30N 52°14' E 001°45'1 1.0
2020-Sep-17 01:00N 52°15' E 001°45'2 3.2
2020-Sep-17 00:30N 52°13' E 001°44'1 2.8
2020-Sep-17 00:00N 52°12' E 001°44'2 0.5
2020-Sep-16 20:30N 52°13' E 001°45'2 0.9
2020-Sep-16 18:30N 52°13' E 001°42'1 1.1
2020-Sep-16 18:00N 52°12' E 001°42'0 0.2
2020-Sep-16 17:00N 52°12' E 001°42'1 2.0
2020-Sep-16 16:30N 52°11' E 001°41'1 0.1
2020-Sep-16 12:00N 52°11' E 001°40'2 0.3
2020-Sep-16 07:00N 52°12' E 001°42'0 0.0
2020-Sep-16 05:00N 52°12' E 001°42'1 1.8
2020-Sep-16 04:30N 52°13' E 001°42'0 0.0
2020-Sep-16 04:00N 52°13' E 001°42'0 0.2
2020-Sep-16 03:00N 52°13' E 001°43'13 4.3
2020-Sep-16 00:00N 52°20' E 002°01'0 0.4
2020-Sep-15 23:30N 52°20' E 002°01'0 0.0
2020-Sep-15 22:31N 52°20' E 002°01'1 0.5
2020-Sep-15 20:30N 52°20' E 001°59'2 0.2
2020-Sep-15 14:00N 52°19' E 001°56'1 1.1
2020-Sep-15 13:31N 52°19' E 001°56'5 3.2
2020-Sep-15 12:00N 52°17' E 001°49'2 0.5
2020-Sep-15 07:30N 52°16' E 001°46'1 0.3
2020-Sep-15 05:30N 52°15' E 001°45'1 0.4
2020-Sep-15 03:00N 52°14' E 001°44'1 0.6
2020-Sep-15 02:00N 52°14' E 001°43'2 0.3
2020-Sep-14 21:00N 52°13' E 001°42'0 0.4
2020-Sep-14 20:00N 52°12' E 001°42'4 0.7
2020-Sep-14 14:30N 52°15' E 001°46'0 0.0
2020-Sep-14 12:30N 52°15' E 001°46'1 0.4
2020-Sep-14 10:00N 52°15' E 001°47'2 0.7
2020-Sep-14 06:30N 52°14' E 001°51'0 0.0
2020-Sep-14 05:30N 52°14' E 001°51'0 0.0
2020-Sep-14 05:00N 52°14' E 001°51'0 0.4
2020-Sep-14 04:00N 52°13' E 001°51'0 0.0
2020-Sep-14 03:30N 52°13' E 001°51'0 0.9
2020-Sep-14 03:00N 52°13' E 001°51'0 0.0
2020-Sep-14 02:30N 52°13' E 001°51'1 0.5
2020-Sep-14 01:00N 52°12' E 001°52'2 0.8
2020-Sep-13 22:31N 52°11' E 001°54'0 0.0
2020-Sep-13 22:00N 52°11' E 001°54'1 1.6
2020-Sep-13 21:30N 52°11' E 001°55'4 0.7
2020-Sep-13 16:00N 52°11' E 002°02'0 0.0
2020-Sep-13 15:30N 52°11' E 002°02'1 0.6
2020-Sep-13 14:30N 52°12' E 002°02'2 2.0
2020-Sep-13 13:30N 52°13' E 002°04'34 7.5
2020-Sep-13 09:00N 52°44' E 002°26'4 8.2
2020-Sep-13 08:30N 52°48' E 002°27'29 8.3
2020-Sep-13 05:00N 53°15' E 002°08'5 9.8
2020-Sep-13 04:30N 53°18' E 002°02'7 9.8
2020-Sep-13 03:45N 53°23' E 001°53'19 9.7
2020-Sep-13 01:47N 53°39' E 001°34'22 9.8
2020-Sep-12 23:30N 53°54' E 001°07'106 4.2
2020-Sep-11 22:17N 54°55' W 001°22'8 0.6
2020-Sep-11 09:00N 55°01' W 001°14'510.6
2020-Sep-11 08:30N 55°06' W 001°09'510.3
2020-Sep-11 08:00N 55°10' W 001°05'  
Track history (hours):
 
Tides and Currents Weather Stations Pressure Air Temp Water Temp Dewpoint Dewpoint Depression Visibility Wind Speed Wind Dir Waves Ship Positions

Riverdance

Operator: Crescent Marine Services Ltd

Last reported at 2020-Sep-19 07:30 UTC. Time now 2020-Sep-19 08:46 UTC.
Position N 52°12' E 001°42'.

Length 72 m; draft 5.7 m.

Type: Other ship. MMSI: 311000463.

Date/timePositionNaut miles runAvg speedWind from/ knotsBaromVisibWave heightAir tempDewpointWater temp
2020-Sep-19 07:30N 52°12' E 001°42'1 1.0
2020-Sep-19 07:00N 52°12' E 001°42'2 1.2
2020-Sep-19 05:00N 52°14' E 001°42'1 1.1
2020-Sep-19 04:30N 52°14' E 001°43'1 0.7
2020-Sep-19 02:30N 52°16' E 001°43'1 1.0
2020-Sep-19 01:30N 52°17' E 001°43'4 2.2
2020-Sep-18 23:30N 52°12' E 001°42'2 1.7
2020-Sep-18 22:30N 52°11' E 001°41'5 1.9
2020-Sep-18 20:00N 52°16' E 001°43'2 2.1
2020-Sep-18 19:00N 52°14' E 001°42'2 2.5
2020-Sep-18 18:00N 52°11' E 001°42'3 0.9
2020-Sep-18 15:00N 52°14' E 001°44'1 0.9
2020-Sep-18 13:30N 52°15' E 001°43'5 1.6
2020-Sep-18 10:30N 52°19' E 001°46'9 2.9
2020-Sep-18 07:31N 52°11' E 001°42'3 5.5
2020-Sep-18 07:00N 52°14' E 001°44'0 0.2
2020-Sep-18 05:00N 52°14' E 001°44'1 0.7
2020-Sep-18 03:00N 52°13' E 001°44'2 1.0
2020-Sep-18 01:30N 52°14' E 001°44'1 1.3
2020-Sep-18 01:00N 52°14' E 001°45'0 0.1
2020-Sep-17 19:30N 52°15' E 001°44'1 0.5
2020-Sep-17 17:00N 52°14' E 001°43'1 0.7
2020-Sep-17 15:30N 52°13' E 001°44'1 1.3
2020-Sep-17 14:30N 52°12' E 001°45'2 0.8
2020-Sep-17 12:00N 52°13' E 001°42'2 0.5
2020-Sep-17 08:00N 52°11' E 001°42'1 1.1
2020-Sep-17 07:30N 52°11' E 001°42'1 1.2
2020-Sep-17 07:00N 52°10' E 001°42'2 3.5
2020-Sep-17 06:30N 52°11' E 001°44'1 0.4
2020-Sep-17 03:30N 52°10' E 001°44'1 1.8
2020-Sep-17 03:00N 52°11' E 001°44'3 1.9
2020-Sep-17 01:30N 52°14' E 001°45'1 1.0
2020-Sep-17 01:00N 52°15' E 001°45'2 3.2
2020-Sep-17 00:30N 52°13' E 001°44'1 2.8
2020-Sep-17 00:00N 52°12' E 001°44'2 0.5
2020-Sep-16 20:30N 52°13' E 001°45'2 0.9
2020-Sep-16 18:30N 52°13' E 001°42'1 1.1
2020-Sep-16 18:00N 52°12' E 001°42'0 0.2
2020-Sep-16 17:00N 52°12' E 001°42'1 2.0
2020-Sep-16 16:30N 52°11' E 001°41'1 0.1
2020-Sep-16 12:00N 52°11' E 001°40'2 0.3
2020-Sep-16 07:00N 52°12' E 001°42'0 0.0
2020-Sep-16 05:00N 52°12' E 001°42'1 1.8
2020-Sep-16 04:30N 52°13' E 001°42'0 0.0
2020-Sep-16 04:00N 52°13' E 001°42'0 0.2
2020-Sep-16 03:00N 52°13' E 001°43'13 4.3
2020-Sep-16 00:00N 52°20' E 002°01'0 0.4
2020-Sep-15 23:30N 52°20' E 002°01'0 0.0
2020-Sep-15 22:31N 52°20' E 002°01'1 0.5
2020-Sep-15 20:30N 52°20' E 001°59'2 0.2
2020-Sep-15 14:00N 52°19' E 001°56'1 1.1
2020-Sep-15 13:31N 52°19' E 001°56'5 3.2
2020-Sep-15 12:00N 52°17' E 001°49'2 0.5
2020-Sep-15 07:30N 52°16' E 001°46'1 0.3
2020-Sep-15 05:30N 52°15' E 001°45'1 0.4
2020-Sep-15 03:00N 52°14' E 001°44'1 0.6
2020-Sep-15 02:00N 52°14' E 001°43'2 0.3
2020-Sep-14 21:00N 52°13' E 001°42'0 0.4
2020-Sep-14 20:00N 52°12' E 001°42'4 0.7
2020-Sep-14 14:30N 52°15' E 001°46'0 0.0
2020-Sep-14 12:30N 52°15' E 001°46'1 0.4
2020-Sep-14 10:00N 52°15' E 001°47'2 0.7
2020-Sep-14 06:30N 52°14' E 001°51'0 0.0
2020-Sep-14 05:30N 52°14' E 001°51'0 0.0
2020-Sep-14 05:00N 52°14' E 001°51'0 0.4
2020-Sep-14 04:00N 52°13' E 001°51'0 0.0
2020-Sep-14 03:30N 52°13' E 001°51'0 0.9
2020-Sep-14 03:00N 52°13' E 001°51'0 0.0
2020-Sep-14 02:30N 52°13' E 001°51'1 0.5
2020-Sep-14 01:00N 52°12' E 001°52'2 0.8
2020-Sep-13 22:31N 52°11' E 001°54'0 0.0
2020-Sep-13 22:00N 52°11' E 001°54'1 1.6
2020-Sep-13 21:30N 52°11' E 001°55'4 0.7
2020-Sep-13 16:00N 52°11' E 002°02'0 0.0
2020-Sep-13 15:30N 52°11' E 002°02'1 0.6
2020-Sep-13 14:30N 52°12' E 002°02'2 2.0
2020-Sep-13 13:30N 52°13' E 002°04'34 7.5
2020-Sep-13 09:00N 52°44' E 002°26'4 8.2
2020-Sep-13 08:30N 52°48' E 002°27'29 8.3
2020-Sep-13 05:00N 53°15' E 002°08'5 9.8
2020-Sep-13 04:30N 53°18' E 002°02'7 9.8
2020-Sep-13 03:45N 53°23' E 001°53'19 9.7
2020-Sep-13 01:47N 53°39' E 001°34'22 9.8
2020-Sep-12 23:30N 53°54' E 001°07'106 4.2
2020-Sep-11 22:17N 54°55' W 001°22'8 0.6
2020-Sep-11 09:00N 55°01' W 001°14'510.6
2020-Sep-11 08:30N 55°06' W 001°09'510.3
2020-Sep-11 08:00N 55°10' W 001°05'  

Dump ship's entire track history